Time;durP1;ratioP1;P1;durP2;ratioP2;P2;SDS_P1;SDS_P2;PMS_P1;PMS_P2;Temp;Humidity;BMP_temperature;BMP_pressure;BME280_temperature;BME280_humidity;BME280_pressure;Samples;Min_cycle;Max_cycle;Signal;HPM_P1;HPM_P2
2023/09/17 00:01:51;;;;;;;12.73;9.50;;;;;;;19.88;65.07;99481.78;4376738;32;33889;-87
2023/09/17 00:04:19;;;;;;;11.73;9.20;;;;;;;19.92;64.93;99474.69;4362579;32;33506;-86
2023/09/17 00:06:47;;;;;;;12.65;9.75;;;;;;;19.91;64.99;99478.22;4374993;32;34720;-87
2023/09/17 00:09:14;;;;;;;10.93;8.85;;;;;;;19.93;64.82;99472.06;4376438;32;34265;-86
2023/09/17 00:11:42;;;;;;;17.55;10.88;;;;;;;19.87;64.88;99472.16;4376480;32;33595;-86
2023/09/17 00:14:10;;;;;;;10.88;8.90;;;;;;;20.00;64.65;99474.53;4362554;32;33475;-87
2023/09/17 00:16:38;;;;;;;11.00;9.05;;;;;;;19.85;65.25;99462.56;4363135;32;34000;-87
2023/09/17 00:19:06;;;;;;;11.32;9.68;;;;;;;19.92;65.23;99461.53;4363017;32;34615;-86
2023/09/17 00:21:34;;;;;;;12.15;8.75;;;;;;;19.87;65.41;99464.28;4376342;32;34200;-84
2023/09/17 00:24:01;;;;;;;11.35;9.48;;;;;;;19.91;65.43;99462.44;4375828;32;33652;-85
2023/09/17 00:26:29;;;;;;;11.98;9.68;;;;;;;19.92;65.38;99459.78;4376140;32;33733;-85
2023/09/17 00:28:56;;;;;;;11.80;9.77;;;;;;;19.85;65.74;99458.19;4362745;32;34731;-85
2023/09/17 00:31:24;;;;;;;12.85;10.63;;;;;;;19.78;65.85;99458.34;4363015;32;33561;-86
2023/09/17 00:33:51;;;;;;;11.05;9.35;;;;;;;19.82;65.93;99455.62;4376332;32;33672;-85
2023/09/17 00:36:21;;;;;;;13.77;10.70;;;;;;;19.80;65.95;99452.13;4362684;32;33960;-85
2023/09/17 00:38:48;;;;;;;12.13;10.32;;;;;;;19.74;66.28;99457.53;4376066;32;33966;-85
2023/09/17 00:41:16;;;;;;;12.57;11.10;;;;;;;19.91;65.63;99455.41;4376201;32;34370;-85
2023/09/17 00:43:43;;;;;;;14.30;10.40;;;;;;;19.89;65.78;99454.59;4375239;32;33574;-85
2023/09/17 00:46:13;;;;;;;11.80;9.88;;;;;;;19.78;66.00;99458.34;4362200;32;33826;-85
2023/09/17 00:48:42;;;;;;;12.50;10.40;;;;;;;19.79;66.05;99455.66;4362722;32;34209;-85
2023/09/17 00:51:09;;;;;;;12.65;10.23;;;;;;;19.77;66.04;99452.19;4362100;32;33628;-85
2023/09/17 00:53:37;;;;;;;12.70;10.55;;;;;;;19.77;66.00;99452.19;4337671;32;32678;-85
2023/09/17 00:56:04;;;;;;;14.85;11.38;;;;;;;19.78;65.81;99451.31;4353135;32;33551;-84
2023/09/17 00:58:33;;;;;;;13.48;11.18;;;;;;;19.76;66.08;99446.97;4359798;32;34129;-85
2023/09/17 01:01:01;;;;;;;14.48;10.85;;;;;;;19.71;66.48;99454.97;4361365;32;33691;-85
2023/09/17 01:03:30;;;;;;;13.00;11.55;;;;;;;19.66;66.65;99456.78;4375191;32;33039;-85
2023/09/17 01:05:59;;;;;;;14.18;11.65;;;;;;;19.58;67.02;99453.41;4350203;32;34684;-85
2023/09/17 01:08:27;;;;;;;13.10;11.12;;;;;;;19.63;66.79;99446.34;4360231;32;33377;-85
2023/09/17 01:10:55;;;;;;;13.40;10.88;;;;;;;19.63;66.87;99454.25;4360313;32;34811;-85
2023/09/17 01:13:24;;;;;;;12.20;10.57;;;;;;;19.72;66.73;99450.56;4374439;32;34698;-85
2023/09/17 01:15:52;;;;;;;12.10;10.02;;;;;;;19.66;66.97;99456.78;4348958;32;33564;-86
2023/09/17 01:18:21;;;;;;;13.80;10.75;;;;;;;19.66;67.10;99446.28;4360989;32;34239;-85
2023/09/17 01:21:12;;;;;;;14.45;11.00;;;;;;;19.70;66.95;99450.59;4375661;32;33555;-86
2023/09/17 01:24:05;;;;;;;12.85;10.55;;;;;;;19.82;66.73;99452.13;4360208;32;33213;-85
2023/09/17 01:26:35;;;;;;;13.43;11.52;;;;;;;19.81;66.49;99448.62;4357883;32;34662;-86
2023/09/17 01:29:04;;;;;;;13.32;11.57;;;;;;;19.83;65.93;99454.72;4346761;32;34288;-86
2023/09/17 01:31:34;;;;;;;15.50;12.18;;;;;;;19.74;66.36;99444.37;4361303;32;33994;-84
2023/09/17 01:34:01;;;;;;;12.35;11.02;;;;;;;19.73;66.37;99455.78;4367659;32;33477;-84
2023/09/17 01:36:35;;;;;;;14.90;11.12;;;;;;;19.72;66.70;99448.78;4373938;32;34180;-86
2023/09/17 01:39:13;;;;;;;13.30;11.52;;;;;;;19.61;67.21;99450.72;4361081;32;34565;-85
2023/09/17 01:41:41;;;;;;;15.80;11.80;;;;;;;19.67;67.08;99442.78;4354807;32;33945;-86
2023/09/17 01:44:10;;;;;;;12.48;11.12;;;;;;;19.75;66.55;99437.34;4351277;32;33199;-85
2023/09/17 01:46:39;;;;;;;13.57;11.12;;;;;;;19.72;66.35;99443.53;4345874;32;33970;-85
2023/09/17 01:49:12;;;;;;;13.75;11.43;;;;;;;19.65;66.71;99434.03;4361216;32;34123;-85
2023/09/17 01:51:40;;;;;;;13.15;11.73;;;;;;;19.70;66.45;99442.72;4345717;32;33287;-85
2023/09/17 01:54:08;;;;;;;12.85;11.45;;;;;;;19.64;66.68;99437.56;4359130;32;33437;-85
2023/09/17 01:56:37;;;;;;;13.82;10.90;;;;;;;19.67;66.55;99443.63;4375100;32;34127;-86
2023/09/17 01:59:07;;;;;;;12.70;11.02;;;;;;;19.74;65.94;99448.78;4361355;32;33014;-85
2023/09/17 02:01:35;;;;;;;13.85;11.73;;;;;;;19.64;66.24;99448.09;4374814;32;34190;-85
2023/09/17 02:04:03;;;;;;;13.77;10.98;;;;;;;19.79;65.43;99445.16;4374014;32;33693;-87
2023/09/17 02:06:31;;;;;;;13.85;11.35;;;;;;;19.65;66.04;99441.91;4374798;32;33565;-85
2023/09/17 02:08:58;;;;;;;15.25;11.48;;;;;;;19.64;66.14;99453.34;4374588;32;34152;-85
2023/09/17 02:11:26;;;;;;;12.35;10.65;;;;;;;19.61;66.31;99437.59;4346636;32;32791;-86
2023/09/17 02:13:53;;;;;;;13.07;9.65;;;;;;;19.56;66.34;99434.19;4345578;32;32814;-85
2023/09/17 02:16:21;;;;;;;11.43;9.20;;;;;;;19.63;66.19;99436.69;4373948;32;33714;-85
2023/09/17 02:18:51;;;;;;;15.02;9.68;;;;;;;19.69;65.78;99433.06;4374899;32;35505;-84
2023/09/17 02:21:20;;;;;;;11.45;8.70;;;;;;;19.64;66.08;99432.31;4355010;32;34583;-85
2023/09/17 02:23:47;;;;;;;10.38;8.88;;;;;;;19.58;66.42;99427.13;4369525;32;33605;-86
2023/09/17 02:26:16;;;;;;;12.43;8.57;;;;;;;19.59;66.31;99429.75;4373954;32;34636;-86
2023/09/17 02:28:43;;;;;;;9.60;8.25;;;;;;;19.55;66.33;99432.47;4373832;32;34266;-85
2023/09/17 02:31:11;;;;;;;9.43;8.43;;;;;;;19.53;66.32;99428.97;4367884;32;33114;-84
2023/09/17 02:33:40;;;;;;;11.55;8.80;;;;;;;19.57;65.92;99430.66;4369328;32;33518;-85
2023/09/17 02:36:07;;;;;;;12.88;8.00;;;;;;;19.54;66.26;99420.19;4360774;32;32932;-85
2023/09/17 02:38:35;;;;;;;9.70;8.07;;;;;;;19.55;65.93;99420.19;4374285;32;34157;-85
2023/09/17 02:41:04;;;;;;;10.70;8.88;;;;;;;19.50;66.18;99423.78;4373846;32;34041;-87
2023/09/17 02:43:31;;;;;;;13.18;9.25;;;;;;;19.47;66.45;99429.09;4375156;32;33421;-87
2023/09/17 02:46:01;;;;;;;10.07;8.77;;;;;;;19.02;67.88;99435.19;4374492;32;33514;-87
2023/09/17 02:48:32;;;;;;;10.98;8.27;;;;;;;19.26;67.08;99425.97;4375306;32;34209;-85
2023/09/17 02:51:01;;;;;;;12.43;8.43;;;;;;;19.53;65.69;99429.84;4348854;32;33094;-87
2023/09/17 02:53:28;;;;;;;10.85;8.35;;;;;;;19.58;64.99;99427.13;4361365;32;34555;-87
2023/09/17 02:55:56;;;;;;;10.93;8.45;;;;;;;19.48;65.13;99417.69;4374796;32;33583;-86
2023/09/17 02:58:24;;;;;;;10.07;7.53;;;;;;;19.39;65.50;99427.47;4374598;32;34586;-85
2023/09/17 03:00:52;;;;;;;9.75;7.57;;;;;;;19.45;65.30;99424.72;4361102;32;33721;-85
2023/09/17 03:03:19;;;;;;;11.60;7.82;;;;;;;19.45;65.04;99431.75;4361235;32;33185;-86
2023/09/17 03:05:47;;;;;;;10.55;8.38;;;;;;;19.52;64.63;99427.25;4360913;32;33102;-86
2023/09/17 03:08:15;;;;;;;10.05;8.50;;;;;;;19.45;64.89;99427.38;4359834;32;33996;-83
2023/09/17 03:10:44;;;;;;;10.23;8.68;;;;;;;19.20;65.89;99416.44;4346601;32;33196;-86
2023/09/17 03:13:14;;;;;;;10.85;8.38;;;;;;;19.20;66.03;99415.56;4359713;32;32771;-86
2023/09/17 03:15:44;;;;;;;11.63;9.18;;;;;;;19.25;65.87;99419.00;4347492;32;34132;-86
2023/09/17 03:18:12;;;;;;;12.45;9.23;;;;;;;19.31;65.52;99424.13;4374851;32;37055;-85
2023/09/17 03:20:40;;;;;;;12.40;10.48;;;;;;;19.31;65.97;99410.97;4374552;32;33608;-87
2023/09/17 03:23:08;;;;;;;12.00;10.30;;;;;;;19.22;66.35;99408.53;4361289;32;33293;-86
2023/09/17 03:25:37;;;;;;;12.75;10.32;;;;;;;19.24;66.46;99411.97;4361223;32;34058;-86
2023/09/17 03:28:05;;;;;;;11.85;10.27;;;;;;;19.21;66.46;99401.56;4374127;32;33774;-86
2023/09/17 03:30:33;;;;;;;13.27;10.90;;;;;;;19.19;66.49;99408.59;4361260;32;34599;-86
2023/09/17 03:33:03;;;;;;;11.85;10.02;;;;;;;19.18;66.50;99407.72;4374809;32;34602;-86
2023/09/17 03:35:33;;;;;;;12.65;10.55;;;;;;;19.16;66.77;99408.63;4374813;32;33553;-86
2023/09/17 03:38:01;;;;;;;15.13;11.77;;;;;;;19.09;66.94;99412.25;4360865;32;34999;-86
2023/09/17 03:40:29;;;;;;;12.25;10.95;;;;;;;19.28;66.18;99413.69;4375345;32;33800;-88
2023/09/17 03:42:57;;;;;;;13.43;10.57;;;;;;;19.23;66.26;99410.25;4369486;32;34454;-87
2023/09/17 03:45:25;;;;;;;16.30;11.27;;;;;;;19.17;66.54;99416.50;4357072;32;34597;-91
2023/09/17 03:47:53;;;;;;;12.88;10.82;;;;;;;19.11;66.82;99418.38;4375428;32;34117;-87
2023/09/17 03:50:21;;;;;;;13.45;10.60;;;;;;;19.23;66.29;99412.88;4357972;32;33783;-87
2023/09/17 03:52:52;;;;;;;13.38;10.60;;;;;;;19.18;66.36;99409.50;4370591;32;34407;-88
2023/09/17 03:55:20;;;;;;;14.38;9.30;;;;;;;19.07;66.82;99419.31;4362371;32;34561;-88
2023/09/17 03:57:48;;;;;;;12.25;10.18;;;;;;;19.15;66.47;99414.78;4351610;32;34254;-87
2023/09/17 04:00:17;;;;;;;14.80;10.55;;;;;;;19.12;66.78;99423.59;4363352;32;34528;-91
2023/09/17 04:02:45;;;;;;;10.68;9.32;;;;;;;19.06;67.12;99417.59;4376221;32;32706;-87
2023/09/17 04:05:14;;;;;;;11.85;9.60;;;;;;;19.13;67.15;99427.06;4362784;32;33796;-87
2023/09/17 04:07:43;;;;;;;12.65;9.80;;;;;;;19.13;67.16;99422.72;4363143;32;33979;-87
2023/09/17 04:10:15;;;;;;;12.18;9.18;;;;;;;19.03;67.39;99422.91;4376493;32;33972;-88
2023/09/17 04:12:44;;;;;;;11.48;8.38;;;;;;;19.05;67.44;99423.72;4362504;32;34226;-87
2023/09/17 04:15:16;;;;;;;10.73;8.55;;;;;;;19.04;67.42;99424.63;4337963;32;33835;-86
2023/09/17 04:17:45;;;;;;;11.35;9.30;;;;;;;19.00;67.73;99428.22;4363091;32;35045;-87
2023/09/17 04:20:14;;;;;;;9.45;8.15;;;;;;;18.94;68.26;99434.41;4376331;32;34053;-86
2023/09/17 04:22:42;;;;;;;10.82;9.02;;;;;;;18.99;68.33;99437.00;4349855;32;32593;-86
2023/09/17 04:25:11;;;;;;;10.30;8.43;;;;;;;18.99;68.59;99440.47;4376162;32;35257;-87
2023/09/17 04:27:43;;;;;;;11.57;9.05;;;;;;;19.03;68.37;99436.03;4376453;32;34781;-87
2023/09/17 04:30:13;;;;;;;10.60;8.00;;;;;;;18.98;68.72;99448.38;4362649;32;34168;-87
2023/09/17 04:32:42;;;;;;;10.13;7.85;;;;;;;19.09;68.42;99435.91;4362993;32;33377;-86
2023/09/17 04:35:15;;;;;;;10.38;7.65;;;;;;;19.10;68.36;99442.94;4350152;32;33583;-86
2023/09/17 04:37:47;;;;;;;12.15;9.50;;;;;;;19.19;67.77;99438.34;4363017;32;34948;-87
2023/09/17 04:40:15;;;;;;;10.38;8.88;;;;;;;19.17;67.95;99436.66;4362593;32;33749;-87
2023/09/17 04:42:43;;;;;;;10.70;8.95;;;;;;;19.28;67.17;99449.59;4375978;32;33626;-86
2023/09/17 04:45:12;;;;;;;11.85;10.18;;;;;;;19.24;67.30;99447.91;4362992;32;33886;-86
2023/09/17 04:47:40;;;;;;;11.90;9.93;;;;;;;19.13;67.69;99461.25;4350622;32;33660;-87
2023/09/17 04:50:08;;;;;;;10.98;9.48;;;;;;;19.16;67.61;99453.31;4376141;32;34484;-87
2023/09/17 04:52:37;;;;;;;12.30;9.90;;;;;;;19.26;67.50;99461.91;4375485;32;34290;-87
2023/09/17 04:55:05;;;;;;;12.48;9.38;;;;;;;19.29;67.54;99452.22;4362556;32;34683;-87
2023/09/17 04:57:33;;;;;;;11.52;9.82;;;;;;;19.45;67.85;99463.31;4362212;32;34855;-86
2023/09/17 05:00:23;;;;;;;11.73;10.13;;;;;;;19.69;67.41;99467.25;4373931;32;33634;-86
2023/09/17 05:02:49;;;;;;;12.07;10.20;;;;;;;19.96;66.96;99455.31;4347204;32;33775;-87
2023/09/17 05:05:20;;;;;;;13.20;10.30;;;;;;;20.26;65.50;99453.78;4374097;32;33899;-86
2023/09/17 05:07:52;;;;;;;13.15;10.80;;;;;;;20.37;65.07;99469.34;4361586;32;35051;-87
2023/09/17 05:10:21;;;;;;;12.73;10.95;;;;;;;20.22;66.17;99462.66;4370000;32;33641;-87
2023/09/17 05:12:48;;;;;;;13.77;11.27;;;;;;;20.34;66.04;99462.41;4376021;32;33549;-85
2023/09/17 05:15:16;;;;;;;14.93;11.07;;;;;;;20.17;66.84;99465.41;4376040;32;33555;-87
2023/09/17 05:17:44;;;;;;;12.50;10.52;;;;;;;20.57;65.68;99468.94;4350235;32;33913;-87
2023/09/17 05:20:11;;;;;;;12.80;10.82;;;;;;;20.69;65.23;99467.81;4375607;32;34258;-87
2023/09/17 05:22:39;;;;;;;11.27;9.05;;;;;;;20.90;64.65;99469.91;4361527;32;33745;-85
2023/09/17 05:25:10;;;;;;;11.43;9.88;;;;;;;21.25;63.04;99463.78;4362697;32;33731;-85
2023/09/17 05:27:38;;;;;;;10.80;9.20;;;;;;;20.97;64.03;99474.13;4375915;32;33301;-87
2023/09/17 05:30:06;;;;;;;12.27;8.90;;;;;;;20.96;64.22;99476.81;4375506;32;34715;-87
2023/09/17 05:32:34;;;;;;;11.23;9.30;;;;;;;21.20;63.78;99470.06;4375998;32;34252;-86
2023/09/17 05:35:03;;;;;;;11.07;9.23;;;;;;;21.06;63.96;99483.56;4375451;32;33678;-86
2023/09/17 05:37:31;;;;;;;11.12;9.48;;;;;;;21.03;64.32;99478.41;4362108;32;35036;-86
2023/09/17 05:39:59;;;;;;;11.70;8.55;;;;;;;20.94;63.87;99483.88;4362283;32;33734;-85
2023/09/17 05:42:27;;;;;;;9.43;8.10;;;;;;;21.14;63.01;99486.91;4375833;32;33280;-86
2023/09/17 05:44:54;;;;;;;11.98;8.05;;;;;;;20.92;64.85;99490.97;4349693;32;34103;-85
2023/09/17 05:47:23;;;;;;;11.35;7.90;;;;;;;20.76;65.04;99488.69;4374691;32;35232;-87
2023/09/17 05:49:50;;;;;;;9.73;8.10;;;;;;;20.96;64.55;99496.13;4362724;32;33638;-86
2023/09/17 05:52:18;;;;;;;10.77;8.10;;;;;;;21.17;63.87;99492.06;4376088;32;33122;-86
2023/09/17 05:54:46;;;;;;;9.38;7.70;;;;;;;20.87;64.14;99491.94;4362003;32;33035;-87
2023/09/17 05:57:13;;;;;;;9.07;7.55;;;;;;;20.77;64.77;99493.06;4361806;32;33899;-86
2023/09/17 05:59:41;;;;;;;11.12;8.25;;;;;;;20.68;65.14;99488.00;4376078;32;35031;-86
2023/09/17 06:02:11;;;;;;;10.32;8.70;;;;;;;20.89;64.62;99491.91;4362471;32;32823;-86
2023/09/17 06:04:39;;;;;;;9.77;7.65;;;;;;;20.87;64.79;99491.94;4375316;32;33464;-86
2023/09/17 06:07:07;;;;;;;10.43;7.10;;;;;;;21.32;63.12;99486.41;4361538;32;34108;-87
2023/09/17 06:09:34;;;;;;;10.05;8.32;;;;;;;21.06;64.81;99500.28;4375475;32;34094;-87
2023/09/17 06:12:03;;;;;;;9.98;8.40;;;;;;;21.27;63.80;99492.72;4374253;32;33742;-87
2023/09/17 06:14:30;;;;;;;11.10;8.65;;;;;;;21.08;64.13;99493.19;4358186;32;34655;-86
2023/09/17 06:16:58;;;;;;;11.75;9.13;;;;;;;20.97;64.11;99494.34;4360856;32;34207;-86
2023/09/17 06:19:27;;;;;;;10.45;8.70;;;;;;;20.91;64.47;99495.38;4360391;32;34719;-87
2023/09/17 06:21:54;;;;;;;9.75;8.65;;;;;;;21.08;64.43;99498.44;4373406;32;33064;-88
2023/09/17 06:24:22;;;;;;;10.75;9.27;;;;;;;21.04;64.48;99507.34;4358921;32;33827;-86
2023/09/17 06:26:50;;;;;;;10.88;8.65;;;;;;;20.99;63.92;99509.25;4359450;32;33725;-89
2023/09/17 06:29:18;;;;;;;11.18;8.70;;;;;;;20.92;64.77;99505.00;4359888;32;34582;-86
2023/09/17 06:31:45;;;;;;;11.50;9.35;;;;;;;20.96;65.54;99509.31;4359819;32;34835;-87
2023/09/17 06:34:13;;;;;;;10.73;8.68;;;;;;;21.29;63.92;99518.16;4351256;32;34328;-86
2023/09/17 06:36:41;;;;;;;14.10;9.88;;;;;;;21.22;64.52;99515.72;4357864;32;32590;-88
2023/09/17 06:39:08;;;;;;;12.82;10.15;;;;;;;21.38;63.31;99510.03;4358685;32;34246;-87
2023/09/17 06:41:37;;;;;;;10.95;9.30;;;;;;;21.44;63.67;99514.31;4358758;32;33080;-86
2023/09/17 06:44:09;;;;;;;13.85;10.85;;;;;;;21.51;63.86;99507.06;4358912;32;33911;-86
2023/09/17 06:46:37;;;;;;;15.63;10.93;;;;;;;21.72;62.82;99511.78;4359783;32;33819;-86
2023/09/17 06:49:04;;;;;;;13.30;10.43;;;;;;;21.34;63.65;99524.22;4358741;32;33712;-87
2023/09/17 06:51:32;;;;;;;12.65;9.85;;;;;;;21.61;62.85;99513.84;4359932;32;34369;-86
2023/09/17 06:54:00;;;;;;;12.25;10.80;;;;;;;21.62;62.59;99510.28;4359918;32;33908;-86
2023/09/17 06:56:29;;;;;;;14.15;10.98;;;;;;;21.57;63.07;99509.56;4358123;32;34772;-88
2023/09/17 06:58:56;;;;;;;13.93;12.15;;;;;;;21.70;62.85;99512.72;4358451;32;34118;-86
2023/09/17 07:01:24;;;;;;;13.85;11.90;;;;;;;21.71;62.32;99515.34;4358718;32;33419;-85
2023/09/17 07:03:52;;;;;;;13.80;11.90;;;;;;;21.81;62.12;99516.78;4358642;32;34068;-86
2023/09/17 07:06:21;;;;;;;15.20;12.90;;;;;;;21.71;63.22;99525.88;4358737;32;33746;-87
2023/09/17 07:08:49;;;;;;;17.12;13.07;;;;;;;21.71;63.00;99514.47;4358266;32;33863;-87
2023/09/17 07:11:16;;;;;;;15.05;13.45;;;;;;;21.74;62.86;99523.13;4358092;32;34502;-87
2023/09/17 07:13:44;;;;;;;16.30;13.80;;;;;;;21.89;62.22;99513.94;4358849;32;33735;-87
2023/09/17 07:16:13;;;;;;;21.17;13.90;;;;;;;21.69;63.21;99516.28;4358649;32;34934;-87
2023/09/17 07:18:41;;;;;;;16.05;13.15;;;;;;;22.05;62.16;99514.41;4351501;32;34282;-85
2023/09/17 07:21:08;;;;;;;16.62;14.60;;;;;;;22.07;61.80;99523.13;4351229;32;32937;-85
2023/09/17 07:23:36;;;;;;;14.75;13.20;;;;;;;21.98;62.81;99518.13;4360377;32;34700;-82
2023/09/17 07:26:06;;;;;;;15.77;13.45;;;;;;;22.01;62.66;99528.56;4376315;32;34145;-85
2023/09/17 07:28:34;;;;;;;18.83;15.20;;;;;;;22.03;61.68;99521.47;4362271;32;33418;-83
2023/09/17 07:31:01;;;;;;;18.33;15.05;;;;;;;21.79;62.35;99531.81;4362942;32;34817;-85
2023/09/17 07:33:29;;;;;;;18.37;15.63;;;;;;;22.04;62.87;99528.50;4363178;32;33333;-86
2023/09/17 07:35:56;;;;;;;18.37;14.87;;;;;;;22.39;60.94;99519.59;4363081;32;35306;-85
2023/09/17 07:38:24;;;;;;;16.67;14.87;;;;;;;22.32;61.85;99529.47;4376770;32;34765;-90
2023/09/17 07:40:52;;;;;;;15.15;13.55;;;;;;;22.69;60.80;99525.72;4377238;32;33411;-85
2023/09/17 07:43:19;;;;;;;17.35;14.23;;;;;;;22.80;61.00;99528.00;4362943;32;33202;-88
2023/09/17 07:45:48;;;;;;;16.90;13.75;;;;;;;22.87;59.76;99526.06;4376251;32;33853;-87
2023/09/17 07:48:15;;;;;;;18.73;13.38;;;;;;;23.42;59.16;99524.28;4362878;32;34142;-86
2023/09/17 07:50:43;;;;;;;17.60;13.43;;;;;;;23.31;58.35;99527.28;4376473;32;34402;-88
2023/09/17 07:53:11;;;;;;;15.20;13.45;;;;;;;23.44;58.04;99533.03;4376459;32;35280;-87
2023/09/17 07:55:39;;;;;;;19.95;15.57;;;;;;;23.68;58.05;99526.06;4376924;32;33868;-88
2023/09/17 07:58:07;;;;;;;16.37;13.62;;;;;;;24.05;56.37;99525.59;4362381;32;33262;-86
2023/09/17 08:00:35;;;;;;;16.92;14.30;;;;;;;24.14;56.73;99519.09;4376152;32;33410;-88
2023/09/17 08:03:03;;;;;;;16.55;14.40;;;;;;;24.28;55.94;99530.91;4350047;32;33155;-86
2023/09/17 08:05:32;;;;;;;18.40;13.88;;;;;;;24.37;55.41;99528.84;4362667;32;34867;-85
2023/09/17 08:07:59;;;;;;;17.75;14.38;;;;;;;24.48;55.14;99535.50;4375943;32;33903;-86
2023/09/17 08:10:27;;;;;;;21.02;14.20;;;;;;;23.91;56.23;99538.50;4376253;32;33465;-86
2023/09/17 08:12:55;;;;;;;16.52;14.45;;;;;;;24.40;55.37;99536.72;4376256;32;33884;-85
2023/09/17 08:15:23;;;;;;;17.45;13.75;;;;;;;24.45;54.83;99540.03;4362278;32;35063;-87
2023/09/17 08:17:51;;;;;;;15.70;13.27;;;;;;;24.68;54.95;99536.50;4362670;32;34852;-87
2023/09/17 08:20:19;;;;;;;17.90;13.15;;;;;;;24.85;54.07;99539.38;4362609;32;34350;-85
2023/09/17 08:22:47;;;;;;;17.60;13.73;;;;;;;24.64;54.53;99546.38;4375904;32;33930;-88
2023/09/17 08:25:35;;;;;;;15.23;12.50;;;;;;;24.66;54.64;99544.53;4375864;32;34022;-86
2023/09/17 08:28:22;;;;;;;18.87;13.18;;;;;;;25.00;53.05;99543.16;4375126;32;33597;-85
2023/09/17 08:31:11;;;;;;;13.65;11.75;;;;;;;24.58;54.18;99541.28;4375045;32;33105;-85
2023/09/17 08:34:00;;;;;;;13.80;11.93;;;;;;;24.42;54.81;99538.38;4375014;32;33498;-86
2023/09/17 08:36:36;;;;;;;16.95;11.73;;;;;;;24.83;54.43;99535.91;4376070;32;33726;-86
2023/09/17 08:39:06;;;;;;;15.32;12.32;;;;;;;25.00;54.25;99543.16;4375580;32;34395;-84
2023/09/17 08:41:35;;;;;;;15.70;11.98;;;;;;;25.42;52.94;99534.41;4375277;32;34449;-87
2023/09/17 08:44:06;;;;;;;15.88;11.90;;;;;;;25.35;53.21;99540.91;4375810;32;33832;-85
2023/09/17 08:46:35;;;;;;;15.48;12.98;;;;;;;25.46;52.36;99533.38;4376156;32;34137;-82
2023/09/17 08:49:03;;;;;;;16.25;12.35;;;;;;;25.35;52.39;99535.59;4375796;32;34849;-89
2023/09/17 08:51:34;;;;;;;15.35;11.25;;;;;;;25.36;52.78;99530.22;4361710;32;33889;-89
2023/09/17 08:54:06;;;;;;;15.60;12.45;;;;;;;25.37;52.43;99526.63;4347974;32;33771;-90
2023/09/17 08:56:35;;;;;;;17.15;14.07;;;;;;;25.36;52.69;99529.37;4362648;32;34184;-88
2023/09/17 08:59:10;;;;;;;15.40;11.93;;;;;;;25.32;52.02;99533.06;4361493;32;34243;-85
2023/09/17 09:01:39;;;;;;;15.60;13.77;;;;;;;25.31;52.41;99531.34;4359668;32;33910;-86
2023/09/17 09:04:08;;;;;;;14.80;12.93;;;;;;;25.25;52.31;99524.50;4339774;32;33702;-85
2023/09/17 09:06:37;;;;;;;14.68;13.15;;;;;;;25.37;53.04;99531.09;4362359;32;33961;-86
2023/09/17 09:09:07;;;;;;;15.27;12.63;;;;;;;25.51;51.79;99527.84;4361904;32;33487;-89
2023/09/17 09:11:35;;;;;;;17.25;13.93;;;;;;;25.46;52.76;99533.38;4362843;32;34412;-89
2023/09/17 09:14:03;;;;;;;15.48;13.80;;;;;;;25.18;53.03;99536.28;4361884;32;34090;-88
2023/09/17 09:16:36;;;;;;;15.63;12.90;;;;;;;25.09;52.81;99531.34;4374573;32;33996;-88
2023/09/17 09:19:05;;;;;;;16.98;13.75;;;;;;;25.16;53.61;99530.19;4361955;32;32881;-91
2023/09/17 09:21:32;;;;;;;16.75;14.90;;;;;;;25.76;52.39;99530.28;4350137;32;32811;-88
2023/09/17 09:24:00;;;;;;;16.95;13.77;;;;;;;25.75;52.04;99520.59;4349519;32;33337;-87
2023/09/17 09:26:35;;;;;;;18.83;14.00;;;;;;;25.48;52.58;99516.44;4361923;32;33797;-87
2023/09/17 09:29:06;;;;;;;15.68;12.98;;;;;;;25.56;52.25;99513.44;4361633;32;33821;-86
2023/09/17 09:31:34;;;;;;;16.65;14.13;;;;;;;25.37;52.72;99523.13;4375449;32;33329;-84
2023/09/17 09:34:02;;;;;;;16.15;13.70;;;;;;;25.41;52.52;99519.41;4375752;32;34101;-89
2023/09/17 09:36:32;;;;;;;16.30;14.18;;;;;;;25.70;51.74;99513.72;4375412;32;33744;-86
2023/09/17 09:39:01;;;;;;;15.98;13.95;;;;;;;25.46;52.46;99520.09;4361723;32;34053;-87
2023/09/17 09:41:35;;;;;;;16.25;14.20;;;;;;;25.64;52.15;99519.28;4375523;32;33710;-87
2023/09/17 09:44:07;;;;;;;18.45;14.60;;;;;;;25.44;52.55;99519.28;4350028;32;33753;-86
2023/09/17 09:46:36;;;;;;;16.17;14.55;;;;;;;25.54;52.38;99520.63;4361404;32;34797;-87
2023/09/17 09:49:04;;;;;;;15.82;13.45;;;;;;;25.60;52.51;99523.00;4361684;32;34247;-88
2023/09/17 09:51:35;;;;;;;15.85;12.85;;;;;;;25.95;51.09;99521.50;4372823;32;93450;-84
2023/09/17 09:54:04;;;;;;;17.10;13.57;;;;;;;26.12;52.00;99517.22;4375319;32;33981;-86
2023/09/17 09:56:31;;;;;;;16.75;13.40;;;;;;;25.56;51.60;99517.91;4375250;32;34379;-85
2023/09/17 09:59:00;;;;;;;16.00;13.65;;;;;;;25.59;51.58;99515.13;4375641;32;33788;-85
2023/09/17 10:01:28;;;;;;;18.95;13.90;;;;;;;25.72;51.50;99516.28;4375011;32;33379;-83
2023/09/17 10:03:57;;;;;;;19.42;13.68;;;;;;;25.86;50.53;99513.06;4361770;32;33911;-85
2023/09/17 10:06:25;;;;;;;18.15;12.95;;;;;;;26.11;49.60;99513.69;4361424;32;33320;-84
2023/09/17 10:08:53;;;;;;;17.52;13.30;;;;;;;26.06;50.21;99504.19;4375135;32;33760;-84
2023/09/17 10:11:22;;;;;;;16.25;12.80;;;;;;;25.96;50.77;99509.94;4361878;32;33794;-81
2023/09/17 10:13:53;;;;;;;15.93;12.90;;;;;;;26.12;49.36;99512.75;4349170;32;34032;-85
2023/09/17 10:16:22;;;;;;;16.15;13.38;;;;;;;25.84;50.59;99514.94;4349175;32;34331;-83
2023/09/17 10:18:50;;;;;;;15.98;14.32;;;;;;;26.00;50.46;99505.34;4361855;32;33958;-82
2023/09/17 10:21:18;;;;;;;17.55;14.18;;;;;;;25.95;50.54;99512.69;4349227;32;33555;-82
2023/09/17 10:23:47;;;;;;;15.32;12.80;;;;;;;26.18;50.20;99501.88;4360504;32;33628;-84
2023/09/17 10:26:18;;;;;;;15.50;13.20;;;;;;;26.50;49.73;99496.84;4361715;32;33759;-82
2023/09/17 10:28:46;;;;;;;14.73;13.15;;;;;;;26.89;48.81;99499.38;4361802;32;34127;-83
2023/09/17 10:31:15;;;;;;;17.35;13.27;;;;;;;26.55;49.26;99496.63;4361777;32;33967;-85
2023/09/17 10:33:44;;;;;;;12.77;10.70;;;;;;;26.78;48.67;99488.41;4349234;32;34028;-87
2023/09/17 10:36:14;;;;;;;16.27;12.82;;;;;;;26.35;47.37;99494.91;4361787;32;35189;-82
2023/09/17 10:38:43;;;;;;;15.80;13.13;;;;;;;26.49;48.53;99486.31;4361773;32;34032;-88
2023/09/17 10:41:11;;;;;;;18.33;13.80;;;;;;;26.53;49.47;99486.09;4361622;32;34074;-86
2023/09/17 10:43:39;;;;;;;15.10;12.85;;;;;;;26.42;49.67;99491.88;4349028;32;32963;-84
2023/09/17 10:46:08;;;;;;;15.13;13.48;;;;;;;26.20;49.17;99497.31;4375320;32;35208;-88
2023/09/17 10:48:36;;;;;;;15.05;13.00;;;;;;;26.57;49.96;99481.50;4360829;32;33598;-84
2023/09/17 10:51:04;;;;;;;17.48;12.80;;;;;;;26.39;50.23;99478.72;4376528;32;33341;-86
2023/09/17 10:53:33;;;;;;;13.68;12.18;;;;;;;27.05;48.30;99477.34;4363160;32;33931;-83
2023/09/17 10:56:08;;;;;;;14.73;12.50;;;;;;;27.00;48.56;99474.91;4363397;32;33461;-85
2023/09/17 10:58:36;;;;;;;;;;;;;;;27.07;48.18;99483.47;4363866;32;33878;-87
2023/09/17 11:01:06;;;;;;;13.70;12.13;;;;;;;27.51;49.23;99478.59;4377215;32;34073;-84
2023/09/17 11:03:36;;;;;;;14.38;11.65;;;;;;;27.59;45.67;99465.72;4361614;32;34743;-86
2023/09/17 11:06:13;;;;;;;16.58;13.23;;;;;;;27.73;45.86;99464.12;4362908;32;35065;-82
2023/09/17 11:08:43;;;;;;;13.52;11.40;;;;;;;27.53;46.58;99455.38;4360150;32;33304;-84
2023/09/17 11:11:16;;;;;;;14.48;12.98;;;;;;;27.56;46.50;99463.22;4376211;32;34705;-85
2023/09/17 11:13:46;;;;;;;18.48;14.90;;;;;;;27.64;45.96;99463.66;4362479;32;33022;-85
2023/09/17 11:16:24;;;;;;;20.12;12.73;;;;;;;27.28;46.50;99454.94;4363005;32;33746;-83
2023/09/17 11:19:17;;;;;;;15.75;12.60;;;;;;;27.21;47.40;99472.16;4359139;32;33739;-84
2023/09/17 11:22:11;;;;;;;15.23;12.45;;;;;;;27.36;46.86;99469.59;4364912;32;33220;-87
2023/09/17 11:24:40;;;;;;;16.35;12.90;;;;;;;27.21;46.74;99465.03;4362215;32;33572;-83
2023/09/17 11:27:08;;;;;;;14.85;12.52;;;;;;;27.23;47.24;99464.94;4376215;32;33808;-88
2023/09/17 11:29:41;;;;;;;14.45;12.10;;;;;;;27.39;47.79;99466.78;4376813;32;33494;-84
2023/09/17 11:32:11;;;;;;;14.10;11.30;;;;;;;27.74;47.35;99468.53;4376170;32;34356;-83